Forside
METAR-TAF:

METAR-TAF

Lufthavne :

Bahrain, Bahrain

Breddekreds: 26-16N, længdekreds: 050-39E, højde: 2 m

Aktuelle vejr

Denne rapport blev lavet for 35 minutter siden, kl. 12:00 UTC
Vind 9 kt fra vestnordvest
Temperatur 18°C
Fugtighed 73%
Tryk 1017 hPa
Sigt: 9000 m
skyfri

METAR: OBBI 221200Z 30009KT 9000 SKC 18/13 Q1017 NOSIG

Tid: 15:35 (12:35 UTC)

Vejrudsigter

Denne rapport blev lavet for 1 time og 35 minutter siden, kl. 11:00 UTC
Foreløbig gælder fra 22 på 12 UTC til 23 på 18 UTC
Vind 10 kt fra nordvest
Sigt 10 km eller mere
Nogle få skyer i en højde af 2500 ft
ændring
fra 22 på 16 UTC til 22 på 18 UTC
Vind 5 kt fra varierende retninger
Midlertidig
fra 23 på 00 UTC til 23 på 08 UTC
Sigt: 5000 m
tåge/dis
Sandsynlighed 30% :
Midlertidig
fra 23 på 02 UTC til 23 på 05 UTC
Sigt: 3000 m
Spredte skyer i en højde af 800 ft
dis

TAF: OBBI 221100Z 2212/2318 31010KT 9999 FEW025 BECMG 2216/2218 VRB05KT TEMPO 2300/2308 5000 HZ PROB30 TEMPO 2302/2305 3000 BR SCT008

Vejrobservationer og prognoser fra mere end 4000 lufthavne (METAR og TAF).

De gule og røde prikker repræsenterer de meteorologiske stationer.

Flyt musen over at se navnet på stationen.

Så klik over at se vejr observationer og prognoser.

At skifte det kort: Klik på de grønne knapper med et sort kors for at zoome ind; på den grønne knap med en bindestreg for at zoome ud; eller på de grønne pile for tilstødende kort.


METAR-TAF: